»·PEaware :: N707CP KPSC-KBFI

N707CP :: KPSC-KBFI

FLIGHT INFORMATION

Flight Status: Arrived
Operator: Privately registered:
United States
More flights under this callsign
Pilot: Chase W. (8260)
Aircraft: MITSUBISHI MU-2 MARQUISE
(MU2)
More flights by this aircraft type
Origin: KPSC Tri-Cities
United States
Destination: KBFI Boeing Field/King Co Intl
United States
More flights between these airports :: More routes between these airports
Route: +PSC V204 YKM V4 CHINS CHINS2
File this flight plan on PilotEdge
Remarks:
Altitude:
(Current/Filed)
16,000ft
Speed:
(Current/Filed)
250kts
Departed: 17-Dec-17 12:08 PM
Arrived: 17-Dec-17 01:11 PM
Distance/Time
Traveled:
151nm/1:03
Distance/Time
To Go:
Arrived

Flight Plot

Page will automatically refresh every two minutes.

Flight plan parsing failed; only flown route is shown


Map Options




Map Legend


Flown Route
Filed Route
Departure Airport
Arrival Airport
Navaid (VOR, NDB)
Fix

Horizontal Profiles

Position Reports

Time Latitude Longitude Heading Altitude Ground
Speed
17-Dec-17 11:57 46.264439 -119.106042 251 414ft 0kts
17-Dec-17 11:58 46.264439 -119.106043 251 414ft 0kts
17-Dec-17 11:59 46.264439 -119.106043 251 414ft 0kts
17-Dec-17 12:00 46.264439 -119.106043 251 414ft 0kts
17-Dec-17 12:01 46.264439 -119.106043 251 414ft 0kts
17-Dec-17 12:02 46.264439 -119.106043 251 414ft 0kts
17-Dec-17 12:03 46.264439 -119.106043 251 414ft 0kts
17-Dec-17 12:04 46.264439 -119.106043 251 414ft 0kts
17-Dec-17 12:05 46.264439 -119.106043 251 414ft 0kts
17-Dec-17 12:06 46.264439 -119.106043 251 414ft 0kts
17-Dec-17 12:07 46.264439 -119.106043 251 414ft 0kts
17-Dec-17 12:08 46.264439 -119.106043 251 414ft 0kts
17-Dec-17 12:09 46.262887 -119.106568 160 414ft 22kts
17-Dec-17 12:10 46.259197 -119.105781 226 414ft 9kts
17-Dec-17 12:11 46.259038 -119.106000 223 414ft 0kts
17-Dec-17 12:12 46.259038 -119.106000 223 414ft 0kts
17-Dec-17 12:13 46.258771 -119.106362 223 414ft 18kts
17-Dec-17 12:14 46.265371 -119.116465 317 468ft 142kts
17-Dec-17 12:15 46.284801 -119.145767 313 2043ft 168kts
17-Dec-17 12:16 46.306090 -119.178746 314 4177ft 167kts
17-Dec-17 12:17 46.318715 -119.201600 285 5165ft 186kts
17-Dec-17 12:18 46.324432 -119.256184 290 7312ft 191kts
17-Dec-17 12:19 46.339163 -119.304735 287 9274ft 196kts
17-Dec-17 12:20 46.353817 -119.375673 287 11842ft 204kts
17-Dec-17 12:21 46.369760 -119.452572 287 14427ft 213kts
17-Dec-17 12:22 46.387695 -119.539783 287 15769ft 265kts
17-Dec-17 12:23 46.409443 -119.648176 286 15756ft 300kts
17-Dec-17 12:24 46.430530 -119.753205 286 15754ft 311kts
17-Dec-17 12:25 46.450778 -119.853330 286 15751ft 314kts
17-Dec-17 12:26 46.471767 -119.957141 286 15751ft 315kts
17-Dec-17 12:27 46.492833 -120.061692 286 15750ft 315kts
17-Dec-17 12:28 46.514688 -120.170669 286 15750ft 316kts
17-Dec-17 12:29 46.537388 -120.284534 286 15750ft 316kts
17-Dec-17 12:30 46.558515 -120.391131 286 15750ft 316kts
17-Dec-17 12:31 46.582999 -120.477074 307 15770ft 315kts
17-Dec-17 12:32 46.618862 -120.549159 305 15850ft 313kts
17-Dec-17 12:33 46.656073 -120.626857 305 15859ft 315kts
17-Dec-17 12:34 46.690755 -120.699757 304 15859ft 315kts
17-Dec-17 12:35 46.728392 -120.779090 304 15859ft 316kts
17-Dec-17 12:36 46.766058 -120.858661 304 15859ft 316kts
17-Dec-17 12:37 46.806670 -120.944886 304 15859ft 316kts
17-Dec-17 12:38 46.849925 -121.037336 304 15542ft 310kts
17-Dec-17 12:39 46.884045 -121.111016 304 14362ft 292kts
17-Dec-17 12:40 46.913816 -121.174139 304 13299ft 277kts
17-Dec-17 12:41 46.941621 -121.233326 304 12271ft 268kts
17-Dec-17 12:42 46.969002 -121.291754 304 11248ft 270kts
17-Dec-17 12:43 46.995573 -121.349279 304 10303ft 279kts
17-Dec-17 12:44 47.022982 -121.408376 304 9885ft 285kts
17-Dec-17 12:45 47.055251 -121.478000 304 9879ft 284kts
17-Dec-17 12:46 47.094311 -121.562575 304 9879ft 283kts
17-Dec-17 12:47 47.123197 -121.625336 304 9879ft 283kts
17-Dec-17 12:48 47.151769 -121.687566 303 9879ft 283kts
17-Dec-17 12:49 47.185186 -121.761324 303 9879ft 283kts
17-Dec-17 12:50 47.223738 -121.843700 303 9879ft 283kts
17-Dec-17 12:51 47.262153 -121.928055 303 9879ft 283kts
17-Dec-17 12:52 47.297128 -122.005104 303 9879ft 283kts
17-Dec-17 12:53 47.329452 -122.076485 303 9879ft 283kts
17-Dec-17 12:54 47.359834 -122.143638 305 9878ft 282kts
17-Dec-17 12:55 47.407960 -122.178343 354 9853ft 273kts
17-Dec-17 12:56 47.451190 -122.185185 354 8791ft 259kts
17-Dec-17 12:57 47.485488 -122.190184 354 7968ft 250kts
17-Dec-17 12:58 47.520548 -122.193888 358 7109ft 244kts
17-Dec-17 12:59 47.551936 -122.194822 359 6330ft 240kts
17-Dec-17 13:00 47.581531 -122.195608 359 5587ft 238kts
17-Dec-17 13:01 47.607359 -122.217676 302 4763ft 232kts
17-Dec-17 13:02 47.623239 -122.254614 302 4008ft 228kts
17-Dec-17 13:03 47.642161 -122.297597 304 3836ft 194kts
17-Dec-17 13:04 47.661680 -122.362773 314 2955ft 192kts
17-Dec-17 13:05 47.694469 -122.397814 325 2224ft 192kts
17-Dec-17 13:06 47.723603 -122.438507 262 2188ft 145kts
17-Dec-17 13:07 47.705347 -122.452812 151 2019ft 117kts
17-Dec-17 13:08 47.686309 -122.435803 152 2210ft 123kts
17-Dec-17 13:09 47.669942 -122.421672 152 1851ft 116kts
17-Dec-17 13:10 47.644001 -122.399518 152 1557ft 107kts
17-Dec-17 13:11 47.619014 -122.378181 152 1615ft 110kts
17-Dec-17 13:12 47.598264 -122.360473 152 1297ft 109kts
17-Dec-17 13:13 47.582707 -122.347242 151 858ft 99kts
17-Dec-17 13:14 47.568510 -122.334882 151 752ft 113kts
17-Dec-17 13:15 47.553519 -122.322095 152 418ft 99kts
17-Dec-17 13:16 47.540196 -122.311060 152 56ft 93kts
17-Dec-17 13:17 47.531199 -122.303593 155 24ft 23kts
17-Dec-17 13:18 47.528773 -122.303026 149 24ft 21kts
17-Dec-17 13:19 47.524423 -122.299673 236 24ft 12kts
17-Dec-17 13:20 47.523765 -122.300394 1 24ft 0kts

Navigation Log

Ident Type
Flight plan parsing failed, navigation log unavailable